Time;durP1;ratioP1;P1;durP2;ratioP2;P2;SDS_P1;SDS_P2;PMS_P1;PMS_P2;Temp;Humidity;BMP_temperature;BMP_pressure;BME280_temperature;BME280_humidity;BME280_pressure;Samples;Min_cycle;Max_cycle;Signal;HPM_P1;HPM_P2
2022/01/08 00:02:21;;;;;;;0.17;0.17;;;10.00;99.90;;;;;;5014220;28;20100;-84
2022/01/08 00:04:47;;;;;;;8.85;3.30;;;10.00;99.90;;;;;;5014775;28;20022;-84
2022/01/08 00:07:12;;;;;;;2.88;1.40;;;10.10;99.90;;;;;;5014247;28;20382;-83
2022/01/08 00:09:38;;;;;;;0.57;0.57;;;10.20;99.90;;;;;;5013896;28;20048;-76
2022/01/08 00:12:04;;;;;;;0.75;0.70;;;10.20;99.90;;;;;;5014053;28;20489;-76
2022/01/08 00:14:30;;;;;;;2.47;1.65;;;10.20;99.90;;;;;;5013922;28;20096;-84
2022/01/08 00:16:56;;;;;;;3.80;1.20;;;10.20;99.90;;;;;;5013813;28;20033;-76
2022/01/08 00:19:21;;;;;;;0.32;0.32;;;10.20;99.90;;;;;;5012595;28;20440;-83
2022/01/08 00:21:47;;;;;;;0.63;0.38;;;10.20;99.90;;;;;;5013289;28;20029;-83
2022/01/08 00:24:13;;;;;;;2.22;1.95;;;10.20;99.90;;;;;;5012385;28;20065;-76
2022/01/08 00:26:38;;;;;;;4.13;1.75;;;10.20;99.90;;;;;;5012579;28;20046;-77
2022/01/08 00:29:04;;;;;;;3.88;2.92;;;10.20;99.90;;;;;;4996657;28;20027;-83
2022/01/08 00:31:30;;;;;;;1.08;0.60;;;10.20;99.90;;;;;;4993855;28;20026;-83
2022/01/08 00:33:56;;;;;;;7.53;2.92;;;10.20;99.90;;;;;;4993606;28;20034;-84
2022/01/08 00:36:21;;;;;;;2.80;1.25;;;10.20;99.90;;;;;;4993765;28;20037;-76
2022/01/08 00:38:47;;;;;;;3.75;2.17;;;10.20;99.90;;;;;;4993755;28;20406;-76
2022/01/08 00:41:13;;;;;;;1.45;0.75;;;10.10;99.90;;;;;;4993867;28;20030;-76
2022/01/08 00:43:38;;;;;;;0.00;0.00;;;10.10;99.90;;;;;;4993714;28;20034;-84
2022/01/08 00:46:04;;;;;;;1.40;0.98;;;10.00;99.90;;;;;;4993734;28;20026;-83
2022/01/08 00:48:30;;;;;;;2.55;0.88;;;10.10;99.90;;;;;;5001596;28;20021;-84
2022/01/08 00:50:56;;;;;;;1.15;1.05;;;10.10;99.90;;;;;;5012803;28;20036;-76
2022/01/08 00:53:22;;;;;;;0.32;0.32;;;10.10;99.90;;;;;;5013173;28;20044;-81
2022/01/08 00:55:47;;;;;;;0.93;0.68;;;10.10;99.90;;;;;;5012852;28;20053;-84
2022/01/08 00:58:13;;;;;;;4.25;2.15;;;10.10;99.90;;;;;;5013590;28;20037;-85
2022/01/08 01:00:41;;;;;;;0.05;0.05;;;10.10;99.90;;;;;;5011934;28;20525;-84
2022/01/08 01:03:07;;;;;;;0.10;0.10;;;10.20;99.90;;;;;;5013206;28;20022;-75
2022/01/08 01:05:33;;;;;;;0.38;0.38;;;10.20;99.90;;;;;;5012985;28;20025;-76
2022/01/08 01:07:59;;;;;;;0.45;0.45;;;10.20;99.90;;;;;;5012892;28;20026;-83
2022/01/08 01:10:25;;;;;;;13.57;2.38;;;10.10;99.90;;;;;;5012844;28;20021;-84
2022/01/08 01:12:50;;;;;;;1.20;0.43;;;10.10;99.90;;;;;;5011649;28;20032;-84
2022/01/08 01:15:17;;;;;;;24.98;2.40;;;10.10;99.90;;;;;;5012838;28;20474;-83
2022/01/08 01:17:44;;;;;;;0.43;0.40;;;10.10;99.90;;;;;;5012472;28;20097;-75
2022/01/08 01:20:12;;;;;;;0.40;0.40;;;10.10;99.90;;;;;;5013087;28;20056;-80
2022/01/08 01:22:48;;;;;;;1.25;0.85;;;10.00;99.90;;;;;;5012444;28;20073;-84
2022/01/08 01:25:19;;;;;;;0.47;0.47;;;10.00;99.90;;;;;;5013095;28;20046;-84
2022/01/08 01:28:14;;;;;;;0.52;0.15;;;9.90;99.90;;;;;;5011378;28;20030;-83
2022/01/08 01:47:06;;;;;;;8.45;2.13;;;9.70;99.90;;;;;;5012759;28;20037;-76
2022/01/08 01:49:43;;;;;;;0.28;0.28;;;9.70;99.90;;;;;;5011087;28;20026;-84
2022/01/08 01:52:11;;;;;;;0.00;0.00;;;9.70;99.90;;;;;;5012322;28;20030;-84
2022/01/08 01:54:38;;;;;;;0.38;0.38;;;9.70;99.90;;;;;;5010945;28;20014;-76
2022/01/08 01:57:06;;;;;;;0.90;0.90;;;9.70;99.90;;;;;;5012657;28;20035;-76
2022/01/08 01:59:33;;;;;;;7.07;2.78;;;9.60;99.90;;;;;;5012436;28;20041;-84
2022/01/08 02:02:00;;;;;;;0.10;0.10;;;9.60;99.90;;;;;;5012532;28;20238;-76
2022/01/08 02:04:26;;;;;;;2.67;2.47;;;9.60;99.90;;;;;;5012535;28;20037;-84
2022/01/08 02:06:52;;;;;;;0.00;0.00;;;9.60;99.90;;;;;;4998733;28;20031;-84
2022/01/08 02:09:18;;;;;;;0.98;0.65;;;9.60;99.90;;;;;;4995510;28;20080;-76
2022/01/08 02:12:06;;;;;;;0.00;0.00;;;9.60;99.90;;;;;;4996640;28;20442;-76
2022/01/08 02:14:35;;;;;;;7.35;1.38;;;9.60;99.90;;;;;;4996024;28;20038;-84
2022/01/08 02:17:03;;;;;;;0.05;0.05;;;9.60;99.90;;;;;;4996426;28;20536;-83
2022/01/08 02:19:28;;;;;;;1.05;0.63;;;9.70;99.90;;;;;;4996496;28;20022;-83
2022/01/08 02:21:57;;;;;;;0.15;0.13;;;9.60;99.90;;;;;;4996190;28;20450;-76
2022/01/08 02:24:23;;;;;;;0.40;0.40;;;9.60;99.90;;;;;;4995896;28;20081;-76
2022/01/08 02:26:49;;;;;;;1.65;0.85;;;9.60;99.90;;;;;;5005955;28;20116;-85
2022/01/08 02:29:18;;;;;;;0.00;0.00;;;9.60;99.90;;;;;;5014507;28;20405;-84
2022/01/08 02:32:00;;;;;;;0.00;0.00;;;9.50;99.90;;;;;;5015927;28;20034;-84
2022/01/08 02:34:27;;;;;;;0.37;0.37;;;9.50;99.90;;;;;;5015683;28;20050;-84
2022/01/08 02:36:57;;;;;;;0.25;0.25;;;9.50;99.90;;;;;;5015406;28;20029;-76
2022/01/08 02:39:25;;;;;;;0.00;0.00;;;9.50;99.90;;;;;;5015542;28;20046;-84
2022/01/08 02:41:56;;;;;;;0.55;0.55;;;9.50;99.90;;;;;;5015865;28;20456;-76
2022/01/08 02:44:22;;;;;;;0.47;0.47;;;9.50;99.90;;;;;;5014377;28;20042;-84
2022/01/08 02:46:48;;;;;;;9.77;2.00;;;9.40;99.90;;;;;;5014431;28;20044;-77
2022/01/08 02:49:13;;;;;;;0.03;0.03;;;9.50;99.90;;;;;;5015250;28;20501;-76
2022/01/08 02:51:39;;;;;;;1.15;1.10;;;9.40;99.90;;;;;;5014892;28;20093;-76
2022/01/08 02:54:09;;;;;;;34.38;1.75;;;9.40;99.90;;;;;;5015385;28;20026;-84
2022/01/08 02:56:43;;;;;;;9.52;0.63;;;9.40;99.90;;;;;;5015526;28;20018;-85
2022/01/08 02:59:10;;;;;;;0.00;0.00;;;9.50;99.90;;;;;;5015555;28;20025;-84
2022/01/08 03:01:36;;;;;;;1.98;1.08;;;9.50;99.90;;;;;;5014042;28;20026;-76
2022/01/08 03:04:04;;;;;;;1.00;0.93;;;9.40;99.90;;;;;;5015215;28;20063;-76
2022/01/08 03:06:30;;;;;;;0.30;0.17;;;9.40;99.90;;;;;;5004251;28;20081;-77
2022/01/08 03:08:55;;;;;;;0.47;0.25;;;9.50;99.90;;;;;;4995230;28;20030;-84
2022/01/08 03:11:21;;;;;;;2.75;1.52;;;9.50;99.90;;;;;;4995444;28;20022;-77
2022/01/08 03:13:47;;;;;;;7.22;2.00;;;9.60;99.90;;;;;;4995440;28;20499;-77
2022/01/08 03:16:14;;;;;;;0.13;0.13;;;9.60;99.90;;;;;;4995463;28;20022;-83
2022/01/08 03:18:40;;;;;;;0.85;0.85;;;9.60;99.90;;;;;;4994468;28;20065;-84
2022/01/08 03:21:16;;;;;;;5.60;2.70;;;9.60;99.90;;;;;;4995352;28;20061;-84
2022/01/08 03:23:52;;;;;;;2.95;1.88;;;9.70;99.90;;;;;;4995093;28;20065;-85
2022/01/08 03:26:20;;;;;;;1.10;1.10;;;9.70;99.90;;;;;;5000992;28;20481;-77
2022/01/08 03:28:46;;;;;;;1.27;1.27;;;9.70;99.90;;;;;;5013854;28;20040;-76
2022/01/08 03:31:14;;;;;;;9.45;1.85;;;9.80;99.90;;;;;;5014705;28;20050;-84
2022/01/08 03:33:40;;;;;;;1.65;1.48;;;9.80;99.90;;;;;;5014552;28;20071;-85
2022/01/08 03:36:07;;;;;;;1.55;1.30;;;9.80;99.90;;;;;;5014679;28;20025;-84
2022/01/08 03:38:34;;;;;;;0.20;0.20;;;9.90;99.90;;;;;;5014563;28;20030;-76
2022/01/08 03:41:00;;;;;;;3.83;2.17;;;9.90;99.90;;;;;;5014583;28;20033;-77
2022/01/08 03:43:26;;;;;;;0.85;0.85;;;9.90;99.90;;;;;;5014620;28;20025;-77
2022/01/08 03:45:52;;;;;;;19.55;3.40;;;9.90;99.90;;;;;;5014686;28;20481;-84
2022/01/08 03:51:14;;;;;;;0.00;0.00;;;9.80;99.90;;;;;;5013599;28;20030;-84
2022/01/08 03:53:40;;;;;;;4.05;1.38;;;9.90;99.90;;;;;;5013975;28;20048;-77
2022/01/08 03:56:06;;;;;;;1.65;0.65;;;9.80;99.90;;;;;;5013153;28;20081;-84
2022/01/08 03:58:32;;;;;;;0.75;0.75;;;9.80;99.90;;;;;;5014709;28;20054;-84
2022/01/08 04:00:58;;;;;;;5.28;1.55;;;9.80;99.90;;;;;;5014353;28;20441;-84
2022/01/08 04:03:23;;;;;;;0.52;0.52;;;9.80;99.90;;;;;;5014403;28;20374;-83
2022/01/08 04:05:50;;;;;;;0.35;0.35;;;9.90;99.90;;;;;;5013861;28;20489;-76
2022/01/08 04:08:17;;;;;;;9.60;1.75;;;9.90;99.90;;;;;;5013989;28;20485;-83
2022/01/08 04:10:43;;;;;;;0.00;0.00;;;9.90;99.90;;;;;;5013858;28;20036;-85
2022/01/08 04:13:13;;;;;;;0.28;0.28;;;10.00;99.90;;;;;;5012948;28;20440;-84
2022/01/08 04:15:42;;;;;;;3.83;2.55;;;10.00;99.90;;;;;;5014014;28;20508;-84
2022/01/08 04:18:09;;;;;;;7.97;1.48;;;10.10;99.90;;;;;;5013767;28;20033;-76
2022/01/08 04:20:42;;;;;;;0.30;0.30;;;10.00;99.90;;;;;;5013688;28;20081;-76
2022/01/08 04:23:07;;;;;;;39.33;0.90;;;10.00;99.90;;;;;;5014010;28;20421;-84
2022/01/08 04:25:33;;;;;;;1.08;0.98;;;10.00;99.90;;;;;;5013993;28;20030;-77
2022/01/08 04:27:59;;;;;;;3.47;2.58;;;10.10;99.90;;;;;;5025941;28;20033;-84
2022/01/08 04:30:24;;;;;;;0.55;0.55;;;10.10;99.90;;;;;;4992008;28;20042;-77
2022/01/08 04:32:50;;;;;;;2.50;2.30;;;10.10;99.90;;;;;;4994128;28;20522;-76
2022/01/08 04:35:16;;;;;;;6.55;1.55;;;10.10;99.90;;;;;;4994294;28;20030;-85
2022/01/08 04:37:41;;;;;;;1.25;1.15;;;10.10;99.90;;;;;;4994640;28;20029;-84
2022/01/08 04:40:07;;;;;;;9.75;1.95;;;10.10;99.90;;;;;;4995426;28;20397;-85
2022/01/08 04:42:33;;;;;;;2.17;1.35;;;10.10;99.90;;;;;;4995043;28;20026;-84
2022/01/08 04:44:59;;;;;;;4.65;1.65;;;10.10;99.90;;;;;;4993846;28;20105;-76
2022/01/08 04:47:25;;;;;;;0.00;0.00;;;10.30;99.90;;;;;;4993937;28;20061;-84
2022/01/08 04:49:51;;;;;;;0.63;0.63;;;10.30;99.90;;;;;;5012267;28;20485;-85
2022/01/08 04:52:16;;;;;;;0.35;0.35;;;10.40;99.90;;;;;;5013231;28;20032;-82
2022/01/08 04:54:42;;;;;;;0.45;0.45;;;10.40;99.90;;;;;;5013383;28;20036;-84
2022/01/08 04:57:08;;;;;;;3.45;1.35;;;10.40;99.90;;;;;;5013427;28;20057;-77
2022/01/08 04:59:33;;;;;;;7.53;1.55;;;10.50;99.90;;;;;;5013680;28;20057;-77
2022/01/08 05:01:59;;;;;;;3.20;2.10;;;10.50;99.90;;;;;;5014757;28;20034;-89
2022/01/08 05:04:27;;;;;;;0.22;0.22;;;10.50;99.90;;;;;;5022072;28;20025;-79
2022/01/08 05:06:52;;;;;;;2.72;0.95;;;10.40;99.90;;;;;;5018773;28;20022;-85
2022/01/08 05:09:18;;;;;;;0.05;0.05;;;10.30;99.90;;;;;;5013735;28;20057;-78
2022/01/08 05:11:43;;;;;;;1.00;0.65;;;10.30;99.90;;;;;;5013182;28;20374;-85
2022/01/08 05:14:10;;;;;;;0.68;0.68;;;10.30;99.90;;;;;;5013250;28;20130;-77
2022/01/08 05:16:36;;;;;;;0.45;0.45;;;10.30;99.90;;;;;;5013598;28;20022;-84
2022/01/08 05:19:02;;;;;;;8.57;1.65;;;10.30;99.90;;;;;;5012726;28;20100;-84
2022/01/08 05:21:31;;;;;;;0.40;0.40;;;10.30;99.90;;;;;;5012565;28;20386;-84
2022/01/08 05:23:58;;;;;;;0.10;0.10;;;10.30;99.90;;;;;;5012870;28;20022;-85
2022/01/08 05:26:26;;;;;;;0.38;0.38;;;10.30;99.90;;;;;;5013100;28;20022;-77
2022/01/08 05:28:52;;;;;;;1.60;0.52;;;10.30;99.90;;;;;;5013093;28;20397;-83
2022/01/08 05:31:21;;;;;;;0.50;0.50;;;10.30;99.90;;;;;;5010128;28;20449;-84
2022/01/08 05:33:47;;;;;;;5.25;1.30;;;10.30;99.90;;;;;;5012463;28;20128;-84
2022/01/08 05:36:13;;;;;;;2.17;2.08;;;10.20;99.90;;;;;;5012437;28;20504;-77
2022/01/08 05:38:38;;;;;;;2.33;1.40;;;10.20;99.90;;;;;;5012762;28;20088;-84
2022/01/08 05:41:04;;;;;;;0.65;0.65;;;10.20;99.90;;;;;;5012795;28;20093;-77
2022/01/08 05:43:31;;;;;;;8.77;0.57;;;10.20;99.90;;;;;;5014915;28;20022;-83
2022/01/08 05:45:57;;;;;;;5.47;1.77;;;10.20;99.90;;;;;;4997163;28;20031;-84
2022/01/08 05:48:26;;;;;;;7.28;2.58;;;10.20;99.90;;;;;;5004118;28;20097;-85
2022/01/08 05:50:52;;;;;;;0.43;0.43;;;10.20;99.90;;;;;;5016059;28;20045;-85
2022/01/08 05:53:18;;;;;;;3.05;2.00;;;10.20;99.90;;;;;;5016355;28;20478;-85
2022/01/08 05:55:44;;;;;;;10.48;3.30;;;10.30;99.90;;;;;;5016432;28;20037;-84
2022/01/08 05:58:10;;;;;;;0.38;0.25;;;10.20;99.90;;;;;;5016459;28;20057;-82
2022/01/08 06:00:36;;;;;;;5.63;1.10;;;10.20;99.90;;;;;;5016550;28;20477;-77
2022/01/08 06:03:01;;;;;;;0.30;0.30;;;10.20;99.90;;;;;;5016291;28;20033;-76
2022/01/08 06:05:27;;;;;;;0.55;0.55;;;10.10;99.90;;;;;;5015956;28;20177;-77
2022/01/08 06:07:53;;;;;;;0.30;0.30;;;10.20;99.90;;;;;;5016213;28;20489;-84
2022/01/08 06:10:19;;;;;;;3.30;1.30;;;10.10;99.90;;;;;;5015957;28;20026;-84
2022/01/08 06:12:48;;;;;;;0.00;0.00;;;10.10;99.90;;;;;;5016316;28;20057;-84
2022/01/08 06:15:14;;;;;;;0.75;0.75;;;10.20;99.90;;;;;;5016170;28;20033;-77
2022/01/08 06:17:40;;;;;;;5.07;1.92;;;10.30;99.90;;;;;;5015873;28;20030;-77
2022/01/08 06:20:07;;;;;;;3.10;1.85;;;10.30;99.90;;;;;;5016053;28;20030;-84
2022/01/08 06:22:33;;;;;;;0.00;0.00;;;10.30;99.90;;;;;;5014355;28;20057;-85
2022/01/08 06:24:58;;;;;;;0.05;0.05;;;10.30;99.90;;;;;;5016017;28;20026;-84
2022/01/08 06:27:24;;;;;;;1.48;1.08;;;10.20;99.90;;;;;;5016163;28;20113;-77
2022/01/08 06:29:50;;;;;;;0.20;0.20;;;10.30;99.90;;;;;;5015733;28;20528;-77
2022/01/08 06:32:16;;;;;;;9.52;1.70;;;10.20;99.90;;;;;;5014669;28;20033;-77
2022/01/08 06:34:43;;;;;;;0.82;0.82;;;10.20;99.90;;;;;;5015742;28;20030;-84
2022/01/08 06:37:09;;;;;;;3.78;2.25;;;10.30;99.90;;;;;;5015591;28;20037;-77
2022/01/08 06:39:34;;;;;;;1.70;1.50;;;10.30;99.90;;;;;;5015581;28;20085;-84
2022/01/08 06:42:01;;;;;;;1.98;0.77;;;10.30;99.90;;;;;;5015723;28;20057;-77
2022/01/08 06:44:26;;;;;;;2.83;1.10;;;10.40;99.90;;;;;;5015531;28;20033;-77
2022/01/08 06:46:52;;;;;;;28.33;2.53;;;10.40;99.90;;;;;;5015792;28;20025;-83
2022/01/08 06:49:18;;;;;;;1.35;1.25;;;10.50;99.90;;;;;;5015282;28;20500;-78
2022/01/08 06:51:43;;;;;;;0.15;0.15;;;10.50;99.90;;;;;;5014846;28;20029;-77
2022/01/08 06:54:09;;;;;;;0.10;0.10;;;10.50;99.90;;;;;;5014643;28;20026;-85
2022/01/08 06:56:35;;;;;;;0.40;0.40;;;10.50;99.90;;;;;;5015515;28;20045;-77
2022/01/08 06:59:00;;;;;;;0.00;0.00;;;10.50;99.90;;;;;;5015478;28;20401;-84
2022/01/08 07:01:26;;;;;;;4.75;2.17;;;10.50;99.90;;;;;;5015342;28;20076;-77
2022/01/08 07:03:52;;;;;;;1.58;1.48;;;10.60;99.90;;;;;;5015092;28;20505;-84
2022/01/08 07:06:17;;;;;;;0.05;0.05;;;10.60;99.90;;;;;;5013944;28;20022;-77
2022/01/08 07:08:43;;;;;;;3.75;1.98;;;10.60;99.90;;;;;;5014956;28;20033;-77
2022/01/08 07:11:10;;;;;;;0.93;0.90;;;10.60;99.90;;;;;;5018344;28;20053;-84
2022/01/08 07:13:35;;;;;;;5.70;2.67;;;10.60;99.90;;;;;;5035536;28;20038;-83
2022/01/08 07:16:01;;;;;;;0.95;0.40;;;10.60;99.90;;;;;;5036551;28;20068;-83
2022/01/08 07:18:27;;;;;;;0.00;0.00;;;10.60;99.90;;;;;;5035355;28;20022;-84
2022/01/08 07:20:54;;;;;;;0.05;0.05;;;10.60;99.90;;;;;;5022350;28;20105;-78
2022/01/08 07:23:20;;;;;;;17.35;2.50;;;10.70;99.90;;;;;;5016038;28;20024;-83
2022/01/08 07:25:45;;;;;;;0.70;0.47;;;10.70;99.90;;;;;;5029420;28;20061;-76
2022/01/08 07:28:11;;;;;;;0.00;0.00;;;10.80;99.90;;;;;;5029492;28;20085;-83
2022/01/08 07:30:36;;;;;;;0.00;0.00;;;10.80;99.90;;;;;;5034884;28;20097;-83
2022/01/08 07:33:02;;;;;;;1.45;1.35;;;10.80;99.90;;;;;;5016826;28;20030;-77
2022/01/08 07:35:28;;;;;;;1.45;0.65;;;10.80;99.90;;;;;;5013406;28;20433;-82
2022/01/08 07:37:53;;;;;;;5.63;2.35;;;10.70;99.90;;;;;;5014834;28;20100;-84
2022/01/08 07:40:20;;;;;;;7.68;2.40;;;10.70;99.90;;;;;;5015042;28;20045;-84
2022/01/08 07:42:47;;;;;;;6.95;0.43;;;10.70;99.90;;;;;;5014787;28;20524;-84
2022/01/08 07:45:13;;;;;;;5.63;3.03;;;10.70;99.90;;;;;;5014578;28;20473;-84
2022/01/08 07:47:39;;;;;;;0.13;0.13;;;10.70;99.90;;;;;;5014339;28;20499;-76
2022/01/08 07:50:06;;;;;;;1.05;0.85;;;10.70;99.90;;;;;;5014150;28;20026;-84
2022/01/08 07:52:32;;;;;;;0.00;0.00;;;10.70;99.90;;;;;;5013989;28;20388;-85
2022/01/08 07:54:58;;;;;;;0.00;0.00;;;10.70;99.90;;;;;;5014437;28;20022;-84
2022/01/08 07:57:23;;;;;;;4.13;2.05;;;10.70;99.90;;;;;;5014285;28;20022;-84
2022/01/08 07:59:49;;;;;;;0.00;0.00;;;10.70;99.90;;;;;;5014268;28;20102;-84
2022/01/08 08:02:14;;;;;;;0.10;0.10;;;10.70;99.90;;;;;;5014010;28;20029;-76
2022/01/08 08:04:40;;;;;;;2.33;1.35;;;10.70;99.90;;;;;;5014012;28;20038;-84
2022/01/08 08:07:06;;;;;;;0.20;0.20;;;10.80;99.90;;;;;;5011899;28;20048;-85
2022/01/08 08:09:33;;;;;;;0.20;0.20;;;10.80;99.90;;;;;;5013760;28;20101;-85
2022/01/08 08:11:58;;;;;;;0.00;0.00;;;10.80;99.90;;;;;;5013289;28;20018;-84
2022/01/08 08:14:24;;;;;;;2.10;1.90;;;10.90;99.90;;;;;;5013854;28;20036;-77
2022/01/08 08:16:50;;;;;;;8.27;3.15;;;10.90;99.90;;;;;;5013882;28;20030;-83
2022/01/08 08:19:16;;;;;;;0.10;0.10;;;10.90;99.90;;;;;;5013853;28;20481;-82
2022/01/08 08:21:42;;;;;;;0.70;0.68;;;11.00;99.90;;;;;;5012199;28;20485;-84
2022/01/08 08:24:08;;;;;;;5.47;1.45;;;11.00;99.90;;;;;;5013719;28;20053;-84
2022/01/08 08:26:35;;;;;;;9.30;3.60;;;10.90;99.90;;;;;;5013648;28;20045;-76
2022/01/08 08:29:01;;;;;;;0.30;0.30;;;11.00;99.90;;;;;;5013581;28;20057;-84
2022/01/08 08:31:28;;;;;;;0.00;0.00;;;11.00;99.90;;;;;;5013521;28;20033;-84
2022/01/08 08:33:53;;;;;;;0.63;0.35;;;11.00;99.90;;;;;;5012248;28;20477;-83
2022/01/08 08:36:19;;;;;;;0.40;0.40;;;10.90;99.90;;;;;;5013797;28;20026;-84
2022/01/08 08:38:45;;;;;;;0.32;0.32;;;10.90;99.90;;;;;;5013469;28;20034;-77
2022/01/08 08:41:11;;;;;;;0.75;0.73;;;10.80;99.90;;;;;;5013548;28;20033;-77
2022/01/08 08:43:36;;;;;;;0.10;0.10;;;10.90;99.90;;;;;;5013454;28;20046;-84
2022/01/08 08:46:03;;;;;;;0.10;0.10;;;10.90;99.90;;;;;;5002749;28;20029;-84
2022/01/08 08:48:29;;;;;;;0.47;0.47;;;10.90;99.90;;;;;;5001369;28;20033;-84
2022/01/08 08:50:55;;;;;;;0.00;0.00;;;11.00;99.90;;;;;;5013046;28;20018;-76
2022/01/08 08:53:21;;;;;;;0.00;0.00;;;11.00;99.90;;;;;;5013221;28;20041;-76
2022/01/08 08:55:48;;;;;;;0.00;0.00;;;11.10;99.90;;;;;;5013230;28;20034;-84
2022/01/08 08:58:14;;;;;;;23.83;2.85;;;11.10;99.90;;;;;;5013281;28;20396;-84
2022/01/08 09:00:40;;;;;;;0.32;0.30;;;11.20;99.90;;;;;;5013357;28;20049;-76
2022/01/08 09:03:06;;;;;;;0.10;0.10;;;11.20;99.90;;;;;;5013152;28;20493;-85
2022/01/08 09:05:32;;;;;;;0.00;0.00;;;11.30;99.90;;;;;;5012851;28;20029;-76
2022/01/08 09:07:57;;;;;;;0.15;0.15;;;11.30;99.90;;;;;;5013176;28;20022;-85
2022/01/08 09:10:25;;;;;;;2.75;1.75;;;11.30;99.90;;;;;;5013021;28;20512;-84
2022/01/08 09:12:52;;;;;;;0.10;0.10;;;11.30;99.90;;;;;;5013053;28;20497;-77
2022/01/08 09:15:22;;;;;;;2.83;1.30;;;11.30;99.90;;;;;;5011623;28;20082;-82
2022/01/08 09:17:49;;;;;;;0.30;0.30;;;11.20;99.90;;;;;;5012100;28;20026;-76
2022/01/08 09:20:15;;;;;;;0.20;0.20;;;11.20;99.90;;;;;;5012154;28;20033;-76
2022/01/08 09:22:41;;;;;;;0.40;0.40;;;11.20;99.90;;;;;;5011157;28;20421;-76
2022/01/08 09:25:08;;;;;;;11.07;1.77;;;11.40;99.90;;;;;;5012917;28;20032;-84
2022/01/08 09:27:34;;;;;;;0.80;0.63;;;11.50;99.90;;;;;;5012823;28;20029;-83
2022/01/08 09:30:00;;;;;;;0.00;0.00;;;11.60;99.90;;;;;;5012636;28;20046;-77
2022/01/08 09:32:25;;;;;;;0.15;0.15;;;11.60;99.90;;;;;;5011464;28;20102;-84
2022/01/08 09:34:51;;;;;;;0.00;0.00;;;11.60;99.90;;;;;;5012867;28;20080;-84
2022/01/08 09:37:17;;;;;;;0.00;0.00;;;11.60;99.90;;;;;;5012654;28;20021;-83
2022/01/08 09:39:43;;;;;;;0.30;0.30;;;11.50;99.90;;;;;;5012625;28;20050;-84
2022/01/08 09:42:10;;;;;;;8.23;0.95;;;11.50;99.90;;;;;;5012840;28;20104;-85
2022/01/08 09:44:38;;;;;;;0.00;0.00;;;11.60;99.90;;;;;;5012626;28;20029;-76
2022/01/08 09:47:05;;;;;;;1.58;1.17;;;11.70;99.90;;;;;;5012479;28;20389;-84
2022/01/08 09:49:32;;;;;;;2.30;0.73;;;11.60;99.90;;;;;;5012457;28;20053;-83
2022/01/08 09:51:58;;;;;;;0.90;0.77;;;11.70;99.90;;;;;;5012237;28;20026;-76
2022/01/08 09:54:26;;;;;;;0.22;0.22;;;11.90;99.90;;;;;;5012462;28;20120;-83
2022/01/08 09:56:51;;;;;;;1.77;1.17;;;12.00;99.90;;;;;;5011166;28;20030;-83
2022/01/08 09:59:17;;;;;;;0.00;0.00;;;12.00;99.90;;;;;;5012505;28;20049;-76
2022/01/08 10:01:51;;;;;;;1.20;0.90;;;12.00;99.90;;;;;;5012667;28;20508;-83
2022/01/08 10:04:23;;;;;;;1.10;0.98;;;11.90;99.90;;;;;;5012506;28;20389;-83
2022/01/08 10:06:49;;;;;;;0.45;0.43;;;11.90;99.90;;;;;;5013026;28;20057;-76
2022/01/08 10:09:15;;;;;;;0.00;0.00;;;11.80;99.90;;;;;;5012194;28;20057;-76
2022/01/08 10:11:49;;;;;;;0.10;0.10;;;11.80;99.90;;;;;;5010958;28;20401;-77
2022/01/08 10:14:27;;;;;;;2.80;0.15;;;11.90;99.90;;;;;;5012418;28;20022;-84
2022/01/08 10:19:37;;;;;;;10.30;2.35;;;12.10;99.90;;;;;;5012293;28;20037;-83
2022/01/08 10:22:15;;;;;;;0.00;0.00;;;12.20;99.90;;;;;;5011956;28;20034;-77
2022/01/08 10:24:40;;;;;;;2.08;0.43;;;12.20;99.90;;;;;;5012322;28;20568;-76
2022/01/08 10:27:07;;;;;;;0.10;0.10;;;12.30;99.90;;;;;;5012264;28;20109;-83
2022/01/08 10:29:34;;;;;;;0.10;0.10;;;12.40;99.90;;;;;;5013663;28;20046;-83
2022/01/08 10:32:00;;;;;;;13.75;0.68;;;12.40;99.90;;;;;;5016248;28;20125;-77
2022/01/08 10:34:28;;;;;;;7.80;1.48;;;12.40;99.90;;;;;;5014056;28;20497;-77
2022/01/08 10:36:56;;;;;;;0.10;0.10;;;12.40;99.90;;;;;;5014236;28;20087;-77
2022/01/08 10:39:31;;;;;;;2.40;0.65;;;12.40;99.90;;;;;;5015779;28;20026;-81
2022/01/08 10:41:58;;;;;;;0.32;0.32;;;12.50;99.90;;;;;;5016012;28;20030;-83
2022/01/08 10:44:28;;;;;;;0.73;0.73;;;12.50;99.90;;;;;;5015691;28;20029;-82
2022/01/08 10:46:56;;;;;;;1.75;1.35;;;12.40;99.90;;;;;;5015575;28;20029;-84
2022/01/08 10:49:33;;;;;;;0.28;0.28;;;12.40;99.90;;;;;;5015517;28;20018;-78
2022/01/08 10:52:04;;;;;;;0.38;0.38;;;12.40;99.90;;;;;;5015163;28;20482;-84
2022/01/08 10:54:38;;;;;;;6.93;3.42;;;12.30;99.90;;;;;;5015246;28;20390;-82
2022/01/08 10:57:09;;;;;;;0.35;0.35;;;12.40;99.90;;;;;;5015528;28;20030;-84
2022/01/08 10:59:36;;;;;;;0.08;0.08;;;12.40;99.90;;;;;;5015530;28;20026;-85
2022/01/08 11:02:03;;;;;;;0.40;0.40;;;12.40;99.90;;;;;;5015482;28;20037;-76
2022/01/08 11:04:46;;;;;;;0.05;0.05;;;12.40;99.90;;;;;;5015242;28;20065;-85
2022/01/08 11:07:16;;;;;;;2.42;1.50;;;12.40;99.90;;;;;;5015330;28;20385;-84
2022/01/08 11:09:44;;;;;;;1.13;0.90;;;12.50;99.90;;;;;;5015105;28;20026;-84
2022/01/08 11:12:14;;;;;;;0.52;0.45;;;12.50;99.90;;;;;;5015608;28;20026;-83
2022/01/08 11:17:22;;;;;;;0.75;0.70;;;12.50;99.90;;;;;;5014983;28;20032;-77
2022/01/08 11:20:04;;;;;;;0.20;0.20;;;12.50;99.90;;;;;;5014897;28;20026;-84
2022/01/08 11:22:32;;;;;;;0.68;0.68;;;12.50;99.90;;;;;;5014371;28;20477;-84
2022/01/08 11:25:06;;;;;;;1.75;1.65;;;12.50;99.90;;;;;;5015369;28;20026;-85
2022/01/08 11:27:57;;;;;;;15.13;1.92;;;12.50;99.90;;;;;;5014925;28;20029;-78
2022/01/08 11:30:28;;;;;;;23.45;0.98;;;12.50;99.90;;;;;;5014893;28;20121;-83
2022/01/08 11:32:58;;;;;;;1.45;1.35;;;12.40;99.90;;;;;;5014901;28;20025;-76
2022/01/08 11:35:25;;;;;;;1.30;0.65;;;12.30;99.90;;;;;;5014352;28;20026;-85
2022/01/08 11:37:52;;;;;;;11.00;0.68;;;12.30;99.90;;;;;;5014845;28;20022;-84
2022/01/08 11:40:20;;;;;;;9.00;1.88;;;12.30;99.90;;;;;;5014580;28;20393;-77
2022/01/08 11:42:47;;;;;;;1.30;1.08;;;12.20;99.90;;;;;;5014642;28;20429;-76
2022/01/08 11:45:17;;;;;;;0.70;0.43;;;12.20;99.90;;;;;;5013561;28;20029;-83
2022/01/08 11:47:49;;;;;;;0.30;0.30;;;12.20;99.90;;;;;;4999979;28;20027;-86
2022/01/08 11:50:26;;;;;;;0.30;0.30;;;12.20;99.90;;;;;;5014535;28;20030;-84
2022/01/08 11:53:10;;;;;;;1.17;1.13;;;12.10;99.90;;;;;;5014038;28;20025;-77
2022/01/08 11:55:36;;;;;;;0.00;0.00;;;12.10;99.90;;;;;;5014180;28;20029;-77
2022/01/08 11:58:17;;;;;;;0.32;0.32;;;12.00;99.90;;;;;;5016745;28;20030;-89
2022/01/08 12:00:55;;;;;;;0.00;0.00;;;11.70;99.90;;;;;;5017326;28;20101;-88
2022/01/08 12:03:22;;;;;;;0.70;0.70;;;11.50;99.90;;;;;;5018216;28;20029;-89
2022/01/08 12:05:49;;;;;;;0.10;0.10;;;11.40;99.90;;;;;;5014849;28;20513;-77
2022/01/08 12:08:17;;;;;;;0.00;0.00;;;11.30;99.90;;;;;;5014486;28;20021;-76
2022/01/08 12:10:58;;;;;;;0.08;0.08;;;11.10;99.90;;;;;;5013173;28;20562;-85
2022/01/08 12:13:46;;;;;;;0.10;0.10;;;11.10;99.90;;;;;;5014847;28;20022;-85
2022/01/08 12:16:51;;;;;;;0.35;0.30;;;11.00;99.90;;;;;;5014290;28;20018;-86
2022/01/08 12:19:29;;;;;;;0.00;0.00;;;11.10;99.90;;;;;;4992059;28;20104;-76
2022/01/08 12:21:55;;;;;;;0.40;0.40;;;11.00;99.90;;;;;;4991755;28;20053;-77
2022/01/08 12:24:26;;;;;;;2.20;0.85;;;11.10;99.90;;;;;;4992466;28;20517;-85
2022/01/08 12:26:59;;;;;;;0.20;0.20;;;11.00;99.90;;;;;;4992278;28;20031;-77
2022/01/08 12:29:35;;;;;;;;;;;11.00;99.90;;;;;;4992446;28;20039;-86
2022/01/08 12:32:46;;;;;;;0.00;0.00;;;10.90;99.90;;;;;;4992440;28;19943;-76
2022/01/08 12:35:19;;;;;;;1.85;1.27;;;10.90;99.90;;;;;;4990042;28;20034;-84
2022/01/08 12:37:51;;;;;;;0.00;0.00;;;10.90;99.90;;;;;;4991801;28;20046;-76
2022/01/08 12:40:37;;;;;;;0.00;0.00;;;11.00;99.90;;;;;;4992206;28;20054;-84
2022/01/08 12:43:35;;;;;;;0.73;0.73;;;11.00;99.90;;;;;;4991994;28;20042;-84
2022/01/08 12:46:11;;;;;;;0.00;0.00;;;11.00;99.90;;;;;;4991747;28;20448;-76
2022/01/08 12:48:36;;;;;;;0.70;0.32;;;11.00;99.90;;;;;;5000104;28;20045;-85
2022/01/08 12:51:05;;;;;;;0.00;0.00;;;11.00;99.90;;;;;;5012480;28;20080;-86
2022/01/08 12:53:32;;;;;;;0.00;0.00;;;11.00;99.90;;;;;;5012925;28;20026;-87
2022/01/08 12:55:58;;;;;;;0.63;0.63;;;11.00;99.90;;;;;;5013779;28;20485;-84
2022/01/08 12:58:45;;;;;;;0.00;0.00;;;11.00;99.90;;;;;;5013404;28;20037;-77
2022/01/08 13:01:17;;;;;;;2.63;0.25;;;11.00;99.90;;;;;;5013225;28;20101;-76
2022/01/08 13:03:48;;;;;;;0.15;0.15;;;10.90;99.90;;;;;;5014309;28;20026;-88
2022/01/08 13:06:13;;;;;;;0.20;0.20;;;10.90;99.90;;;;;;5017026;28;20050;-88
2022/01/08 13:08:41;;;;;;;0.65;0.65;;;10.80;99.90;;;;;;5014548;28;20393;-88
2022/01/08 13:11:09;;;;;;;0.35;0.35;;;10.80;99.90;;;;;;5011981;28;20100;-78
2022/01/08 13:13:44;;;;;;;0.13;0.13;;;10.80;99.90;;;;;;5013003;28;20477;-77
2022/01/08 13:16:17;;;;;;;0.98;0.95;;;10.80;99.90;;;;;;5011820;28;20113;-87
2022/01/08 13:18:55;;;;;;;0.20;0.20;;;10.70;99.90;;;;;;5013005;28;20034;-88